Time;durP1;ratioP1;P1;durP2;ratioP2;P2;SDS_P1;SDS_P2;PMS_P1;PMS_P2;Temp;Humidity;BMP_temperature;BMP_pressure;BME280_temperature;BME280_humidity;BME280_pressure;Samples;Min_cycle;Max_cycle;Signal;HPM_P1;HPM_P2
2023/10/18 00:02:54;;;;;;;32.28;20.05;;;;;;;8.51;71.08;99798.50;4980166;28;20050;-79
2023/10/18 00:05:22;;;;;;;31.63;19.98;;;;;;;8.50;70.93;99799.44;4991420;28;20501;-76
2023/10/18 00:07:51;;;;;;;36.65;20.52;;;;;;;8.48;71.03;99796.88;4989950;28;20077;-77
2023/10/18 00:10:18;;;;;;;31.20;19.05;;;;;;;8.45;71.25;99791.78;4991249;28;20495;-76
2023/10/18 00:12:45;;;;;;;30.05;18.52;;;;;;;8.44;71.37;99782.19;4986003;28;20055;-76
2023/10/18 00:15:12;;;;;;;35.05;21.10;;;;;;;8.42;71.13;99781.44;4974563;28;20046;-76
2023/10/18 00:17:39;;;;;;;33.90;19.58;;;;;;;8.40;71.37;99789.38;4974502;28;20055;-77
2023/10/18 00:20:19;;;;;;;32.28;19.30;;;;;;;8.38;71.28;99783.38;4975904;28;20080;-77
2023/10/18 00:22:46;;;;;;;30.38;19.20;;;;;;;8.37;71.54;99792.13;4978686;28;20064;-75
2023/10/18 00:25:13;;;;;;;30.88;19.17;;;;;;;8.36;71.44;99793.06;4994707;28;20053;-76
2023/10/18 00:27:45;;;;;;;37.45;20.10;;;;;;;8.35;71.43;99794.00;4993531;28;20054;-76
2023/10/18 00:30:12;;;;;;;32.05;19.30;;;;;;;8.35;71.55;99794.00;4995118;28;20050;-77
2023/10/18 00:32:41;;;;;;;34.58;20.42;;;;;;;8.35;71.66;99788.75;4985876;28;20066;-76
2023/10/18 00:35:23;;;;;;;32.72;19.90;;;;;;;8.34;71.51;99787.88;4974502;28;20050;-74
2023/10/18 00:37:54;;;;;;;31.90;19.42;;;;;;;8.34;71.74;99780.03;4975500;28;20042;-76
2023/10/18 00:43:22;;;;;;;32.28;21.20;;;;;;;8.31;71.25;99787.19;4983232;28;20548;-76
2023/10/18 00:45:51;;;;;;;31.55;19.40;;;;;;;8.32;71.22;99786.25;4994824;28;20056;-75
2023/10/18 00:48:20;;;;;;;34.47;20.02;;;;;;;8.29;71.43;99786.41;4994614;28;20054;-76
2023/10/18 00:50:51;;;;;;;35.67;20.38;;;;;;;8.27;71.25;99783.00;4993406;28;20483;-75
2023/10/18 00:53:24;;;;;;;36.00;20.60;;;;;;;8.24;71.27;99784.00;4985668;28;20055;-76
2023/10/18 00:56:04;;;;;;;31.80;21.10;;;;;;;8.23;71.08;99784.09;4975087;28;20113;-76
2023/10/18 00:58:33;;;;;;;32.22;19.77;;;;;;;8.23;71.23;99786.69;4975001;28;20054;-76
2023/10/18 01:01:09;;;;;;;30.75;19.52;;;;;;;8.21;71.44;99785.00;4973905;28;20050;-76
2023/10/18 01:03:46;;;;;;;33.65;19.70;;;;;;;8.19;71.33;99778.97;4982565;28;20058;-75
2023/10/18 01:06:21;;;;;;;34.17;20.43;;;;;;;8.18;71.46;99779.03;4993402;28;20503;-75
2023/10/18 01:08:49;;;;;;;32.55;19.63;;;;;;;8.15;71.05;99777.41;4994064;28;20296;-75
2023/10/18 01:11:22;;;;;;;42.08;19.77;;;;;;;8.12;71.41;99774.94;4994467;28;20046;-76
2023/10/18 01:13:49;;;;;;;33.65;20.00;;;;;;;8.11;71.54;99775.84;4987036;28;20614;-76
2023/10/18 01:16:30;;;;;;;36.13;20.42;;;;;;;8.09;71.43;99775.09;4974715;28;20495;-75
2023/10/18 01:18:57;;;;;;;51.40;19.60;;;;;;;8.08;71.64;99770.78;4989568;28;20058;-78
2023/10/18 01:21:24;;;;;;;42.95;19.05;;;;;;;8.07;71.65;99766.44;4993004;28;20054;-76
2023/10/18 01:23:56;;;;;;;34.72;19.25;;;;;;;8.03;71.84;99765.72;4993604;28;20415;-76
2023/10/18 01:26:25;;;;;;;24.52;14.00;;;;;;;8.05;71.65;99770.91;4993860;28;20057;-76
2023/10/18 01:28:54;;;;;;;32.60;18.73;;;;;;;8.05;71.85;99765.66;4979964;28;20050;-77
2023/10/18 01:31:22;;;;;;;32.65;20.13;;;;;;;8.04;71.65;99758.72;4973438;28;20407;-78
2023/10/18 01:33:50;;;;;;;42.25;19.00;;;;;;;8.03;71.47;99762.25;4974921;28;20042;-76
2023/10/18 01:36:20;;;;;;;31.17;19.83;;;;;;;8.03;71.51;99749.13;4979842;28;20503;-76
2023/10/18 01:38:54;;;;;;;33.50;19.70;;;;;;;8.02;71.52;99750.06;4992778;28;20053;-76
2023/10/18 01:41:28;;;;;;;29.15;18.40;;;;;;;8.01;71.56;99743.13;4992021;28;20050;-76
2023/10/18 01:43:59;;;;;;;30.27;19.20;;;;;;;8.00;71.66;99742.28;4993671;28;20046;-76
2023/10/18 01:46:26;;;;;;;32.70;20.17;;;;;;;7.99;71.47;99739.75;4987138;28;20047;-76
2023/10/18 01:48:55;;;;;;;32.63;20.13;;;;;;;7.98;71.45;99741.50;4972825;28;20050;-77
2023/10/18 01:51:22;;;;;;;31.08;20.35;;;;;;;7.96;71.32;99735.47;4974158;28;20078;-76
2023/10/18 01:53:50;;;;;;;32.17;20.48;;;;;;;7.94;71.48;99730.31;4974802;28;20046;-76
2023/10/18 01:56:19;;;;;;;33.67;20.90;;;;;;;7.93;71.38;99725.97;4976474;28;20049;-77
2023/10/18 01:58:49;;;;;;;34.28;21.05;;;;;;;7.91;71.34;99717.34;4993412;28;20109;-76
2023/10/18 02:01:18;;;;;;;32.40;20.25;;;;;;;7.90;71.49;99706.94;4993558;28;20096;-75
2023/10/18 02:03:46;;;;;;;32.45;19.50;;;;;;;7.88;71.42;99712.25;4993408;28;20496;-75
2023/10/18 02:06:14;;;;;;;34.05;20.25;;;;;;;7.85;71.49;99699.28;4993218;28;20062;-76
2023/10/18 02:08:41;;;;;;;36.38;20.40;;;;;;;7.83;71.86;99709.00;4974201;28;20098;-77
2023/10/18 02:11:11;;;;;;;36.22;20.20;;;;;;;7.80;71.63;99707.38;4972667;28;20160;-76
2023/10/18 02:13:41;;;;;;;32.55;20.25;;;;;;;7.78;71.94;99705.75;4973909;28;20054;-76
2023/10/18 02:16:15;;;;;;;36.38;19.73;;;;;;;7.76;71.63;99703.19;4973701;28;20573;-75
2023/10/18 02:18:48;;;;;;;36.63;21.10;;;;;;;7.75;71.88;99705.88;4988410;28;20065;-76
2023/10/18 02:21:15;;;;;;;29.50;18.93;;;;;;;7.74;71.55;99696.31;4992828;28;20062;-76
2023/10/18 02:23:43;;;;;;;32.13;19.13;;;;;;;7.73;71.44;99699.88;4992951;28;20426;-76
2023/10/18 02:26:22;;;;;;;33.38;19.85;;;;;;;7.69;71.48;99705.25;4991781;28;20128;-77
2023/10/18 02:28:49;;;;;;;32.15;19.67;;;;;;;7.67;71.63;99698.38;4984489;28;20107;-76
2023/10/18 02:31:21;;;;;;;32.95;20.48;;;;;;;7.64;71.62;99690.66;4992692;28;20065;-76
2023/10/18 02:33:48;;;;;;;30.87;19.77;;;;;;;7.63;71.83;99702.06;4993203;28;20051;-75
2023/10/18 02:36:21;;;;;;;34.45;20.08;;;;;;;7.60;71.24;99703.06;4992284;28;20090;-76
2023/10/18 02:38:52;;;;;;;31.48;20.50;;;;;;;7.59;71.77;99705.72;4980384;28;20051;-76
2023/10/18 02:41:26;;;;;;;33.05;19.65;;;;;;;7.56;71.68;99704.94;4973414;28;20047;-76
2023/10/18 02:43:54;;;;;;;28.30;18.85;;;;;;;7.54;71.71;99698.06;4971951;28;20057;-76
2023/10/18 02:46:25;;;;;;;32.67;19.58;;;;;;;7.53;71.80;99702.47;4973075;28;20058;-75
2023/10/18 02:48:56;;;;;;;30.10;19.02;;;;;;;7.50;71.52;99699.13;4973255;28;20073;-77
2023/10/18 02:51:28;;;;;;;32.60;19.80;;;;;;;7.50;71.46;99696.50;4972957;28;20096;-77
2023/10/18 02:54:10;;;;;;;29.88;19.05;;;;;;;7.49;71.53;99689.59;4971798;28;20102;-76
2023/10/18 02:56:37;;;;;;;36.80;20.30;;;;;;;7.47;71.79;99687.03;4973225;28;20460;-75
2023/10/18 02:59:07;;;;;;;32.30;20.48;;;;;;;7.45;71.72;99686.25;4979101;28;20097;-76
2023/10/18 03:01:36;;;;;;;30.85;19.13;;;;;;;7.43;71.71;99683.72;4992328;28;20085;-77
2023/10/18 03:04:07;;;;;;;30.58;19.88;;;;;;;7.41;71.90;99672.44;4990848;28;20054;-77
2023/10/18 03:06:34;;;;;;;31.35;19.23;;;;;;;7.40;71.84;99667.28;4988400;28;20117;-76
2023/10/18 03:09:03;;;;;;;31.63;19.15;;;;;;;7.39;72.28;99666.44;4972634;28;20542;-75
2023/10/18 03:11:32;;;;;;;34.67;20.52;;;;;;;7.38;72.00;99656.03;4972673;28;20101;-75
2023/10/18 03:14:01;;;;;;;30.73;18.92;;;;;;;7.37;72.16;99663.00;4972738;28;20572;-76
2023/10/18 03:16:49;;;;;;;34.08;20.77;;;;;;;7.36;72.40;99656.09;4972645;28;20133;-76
2023/10/18 03:19:18;;;;;;;35.03;18.70;;;;;;;7.37;72.25;99657.78;4972344;28;20058;-76
2023/10/18 03:21:50;;;;;;;31.50;19.85;;;;;;;7.38;72.05;99658.63;4981545;28;20058;-79
2023/10/18 03:24:21;;;;;;;31.05;19.40;;;;;;;7.37;71.94;99655.16;4992105;28;20148;-76
2023/10/18 03:26:47;;;;;;;32.88;18.67;;;;;;;7.36;72.01;99648.22;4992083;28;20097;-76
2023/10/18 03:29:17;;;;;;;29.50;19.45;;;;;;;7.35;72.17;99643.91;4972704;28;20502;-76
2023/10/18 03:31:44;;;;;;;31.70;19.73;;;;;;;7.34;71.87;99639.59;4972247;28;20546;-76
2023/10/18 03:34:18;;;;;;;29.48;19.08;;;;;;;7.33;71.72;99637.06;4972517;28;20059;-76
2023/10/18 03:36:49;;;;;;;27.98;19.50;;;;;;;7.31;71.75;99639.75;4972352;28;20098;-76
2023/10/18 03:39:16;;;;;;;30.33;19.55;;;;;;;7.30;71.85;99632.81;4976416;28;20142;-76
2023/10/18 03:41:43;;;;;;;28.40;18.80;;;;;;;7.30;72.05;99635.44;4972338;28;20051;-75
2023/10/18 03:44:13;;;;;;;27.20;18.23;;;;;;;7.28;72.00;99626.78;4972140;28;20476;-76
2023/10/18 03:46:48;;;;;;;29.23;18.27;;;;;;;7.27;72.09;99630.31;4971552;28;20054;-75
2023/10/18 03:49:36;;;;;;;28.30;18.52;;;;;;;7.23;71.92;99632.25;4982578;28;20055;-77
2023/10/18 03:54:47;;;;;;;27.65;17.52;;;;;;;7.23;72.27;99626.16;4970753;28;20499;-76
2023/10/18 03:57:18;;;;;;;27.65;18.33;;;;;;;7.21;72.04;99623.59;4972110;28;20126;-76
2023/10/18 03:59:45;;;;;;;27.00;17.40;;;;;;;7.20;72.23;99616.66;4985172;28;20047;-76
2023/10/18 04:02:16;;;;;;;29.58;19.23;;;;;;;7.19;72.72;99614.09;4991489;28;20046;-75
2023/10/18 04:04:48;;;;;;;29.00;19.13;;;;;;;7.18;72.27;99608.03;4991455;28;20124;-76
2023/10/18 04:07:36;;;;;;;30.20;18.98;;;;;;;7.18;72.48;99610.66;4991195;28;20069;-75
2023/10/18 04:10:12;;;;;;;27.10;18.10;;;;;;;7.17;72.66;99615.03;4977438;28;20070;-77
2023/10/18 04:12:43;;;;;;;30.70;18.70;;;;;;;7.17;72.56;99609.81;4971917;28;20070;-77
2023/10/18 04:15:28;;;;;;;27.55;17.77;;;;;;;7.17;72.74;99596.72;4972025;28;20055;-76
2023/10/18 04:20:37;;;;;;;28.77;18.33;;;;;;;7.20;72.68;99590.47;4987196;28;20054;-78
2023/10/18 04:23:14;;;;;;;29.25;18.17;;;;;;;7.22;72.85;99587.81;4991404;28;20050;-76
2023/10/18 04:25:42;;;;;;;29.65;18.45;;;;;;;7.23;72.86;99592.09;4990200;28;20379;-76
2023/10/18 04:28:11;;;;;;;28.15;18.42;;;;;;;7.24;72.91;99588.56;4989774;28;20058;-77
2023/10/18 04:30:38;;;;;;;29.70;19.25;;;;;;;7.24;72.96;99581.56;4978234;28;20061;-76
2023/10/18 04:35:46;;;;;;;28.27;18.02;;;;;;;7.27;72.86;99575.34;4971761;28;20066;-76
2023/10/18 04:38:22;;;;;;;29.23;18.75;;;;;;;7.29;72.74;99570.91;4971619;28;20055;-75
2023/10/18 04:41:04;;;;;;;30.02;19.67;;;;;;;7.27;72.74;99560.50;4981927;28;20069;-75
2023/10/18 04:43:34;;;;;;;29.67;18.33;;;;;;;7.28;72.69;99561.31;4991312;28;20061;-77
2023/10/18 04:46:14;;;;;;;27.35;18.25;;;;;;;7.29;72.66;99555.19;4991078;28;20054;-75
2023/10/18 04:51:28;;;;;;;28.85;19.40;;;;;;;7.26;72.45;99548.31;4979132;28;20392;-75
2023/10/18 04:54:09;;;;;;;26.77;17.17;;;;;;;7.24;72.47;99539.69;4970531;28;20063;-76
2023/10/18 04:56:38;;;;;;;29.90;18.08;;;;;;;7.27;72.65;99528.22;4971592;28;20089;-76
2023/10/18 04:59:26;;;;;;;27.10;18.02;;;;;;;7.26;72.36;99531.75;4971892;28;20518;-77
2023/10/18 05:04:32;;;;;;;28.33;18.08;;;;;;;7.23;72.11;99522.28;4975201;28;20057;-76
2023/10/18 05:07:14;;;;;;;27.85;18.10;;;;;;;7.24;72.57;99521.34;4974875;28;20581;-77
2023/10/18 05:09:43;;;;;;;26.75;17.02;;;;;;;7.24;72.58;99518.75;4974848;28;20062;-75
2023/10/18 05:14:50;;;;;;;27.60;17.70;;;;;;;7.23;72.24;99514.44;4994411;28;20061;-76
2023/10/18 05:17:26;;;;;;;28.35;18.33;;;;;;;7.22;72.13;99512.72;4994092;28;20046;-76
2023/10/18 05:19:56;;;;;;;28.42;17.92;;;;;;;7.23;72.48;99516.19;4992989;28;20058;-76
2023/10/18 05:22:23;;;;;;;28.30;17.73;;;;;;;7.22;72.62;99514.50;4982002;28;20133;-75
2023/10/18 05:28:00;;;;;;;27.20;17.40;;;;;;;7.21;72.32;99507.56;4974562;28;20054;-75
2023/10/18 05:33:47;;;;;;;25.02;17.02;;;;;;;7.17;72.46;99492.00;4977343;28;20046;-73
2023/10/18 05:43:47;;;;;;;25.60;16.70;;;;;;;7.19;72.46;99488.47;4975885;28;20059;-74
2023/10/18 05:46:14;;;;;;;26.60;17.23;;;;;;;7.17;72.60;99481.53;4974356;28;20069;-72
2023/10/18 05:48:41;;;;;;;26.20;17.05;;;;;;;7.17;72.47;99478.06;4974106;28;20097;-72
2023/10/18 05:51:26;;;;;;;24.92;17.73;;;;;;;7.16;72.25;99474.59;4974095;28;20499;-74
2023/10/18 05:53:59;;;;;;;24.83;16.67;;;;;;;7.16;72.30;99479.84;4988882;28;20112;-73
2023/10/18 05:56:30;;;;;;;24.50;17.00;;;;;;;7.15;72.19;99475.50;4990580;28;20059;-75
2023/10/18 06:01:43;;;;;;;29.73;16.92;;;;;;;7.15;72.36;99469.44;4973908;28;20063;-74
2023/10/18 06:04:12;;;;;;;25.85;17.05;;;;;;;7.14;72.54;99467.75;4981583;28;20051;-72
2023/10/18 06:06:39;;;;;;;24.85;16.65;;;;;;;7.14;72.55;99468.56;4972825;28;20085;-74
2023/10/18 06:09:10;;;;;;;26.70;16.20;;;;;;;7.13;72.41;99469.50;4972559;28;20062;-73
2023/10/18 06:11:38;;;;;;;24.58;16.25;;;;;;;7.14;72.71;99452.03;4972827;28;20046;-73
2023/10/18 06:14:08;;;;;;;24.65;16.10;;;;;;;7.13;72.52;99451.19;4993026;28;20058;-74
2023/10/18 06:16:35;;;;;;;26.63;16.20;;;;;;;7.17;72.60;99455.34;4991391;28;20074;-74
2023/10/18 06:19:03;;;;;;;22.27;15.73;;;;;;;7.16;72.92;99453.66;4992620;28;20137;-73
2023/10/18 06:21:36;;;;;;;28.08;17.20;;;;;;;7.17;72.66;99452.75;4993171;28;20067;-73
2023/10/18 06:24:12;;;;;;;27.35;17.08;;;;;;;7.19;72.65;99457.91;4975829;28;20055;-73
2023/10/18 06:26:40;;;;;;;21.77;15.23;;;;;;;7.22;72.89;99451.66;4973230;28;20450;-73
2023/10/18 06:29:11;;;;;;;26.77;17.00;;;;;;;7.23;72.77;99450.75;4972497;28;20050;-73
2023/10/18 06:31:46;;;;;;;24.38;16.55;;;;;;;7.24;72.68;99444.56;4971722;28;20038;-73
2023/10/18 06:34:17;;;;;;;23.20;15.80;;;;;;;7.25;72.83;99441.88;4988171;28;20137;-74
2023/10/18 06:36:49;;;;;;;25.92;15.38;;;;;;;7.25;72.67;99451.53;4992754;28;20058;-74
2023/10/18 06:39:25;;;;;;;27.23;16.13;;;;;;;7.26;72.56;99445.38;4992409;28;20050;-73
2023/10/18 06:41:53;;;;;;;27.27;16.80;;;;;;;7.29;72.92;99438.19;4992858;28;20050;-73
2023/10/18 06:44:20;;;;;;;24.50;15.65;;;;;;;7.31;72.72;99443.38;4984554;28;20066;-73
2023/10/18 06:46:49;;;;;;;24.98;15.35;;;;;;;7.34;72.96;99440.59;4992613;28;20054;-73
2023/10/18 06:49:16;;;;;;;23.60;15.60;;;;;;;7.36;72.81;99454.47;4992344;28;20507;-73
2023/10/18 06:51:43;;;;;;;24.88;16.38;;;;;;;7.37;72.98;99448.28;4992415;28;20042;-72
2023/10/18 06:54:13;;;;;;;22.15;15.98;;;;;;;7.40;73.08;99442.09;4991508;28;20132;-73
2023/10/18 06:56:40;;;;;;;22.70;15.65;;;;;;;7.41;73.02;99434.13;4992163;28;20403;-73
2023/10/18 06:59:07;;;;;;;24.90;15.50;;;;;;;7.46;72.82;99440.91;4991221;28;20558;-73
2023/10/18 07:01:41;;;;;;;24.02;15.55;;;;;;;7.48;72.84;99437.28;4992153;28;20100;-74
2023/10/18 07:04:18;;;;;;;20.45;14.52;;;;;;;7.51;73.02;99442.38;4985156;28;20492;-75
2023/10/18 07:06:45;;;;;;;22.60;14.35;;;;;;;7.55;72.81;99436.06;4972682;28;20540;-73
2023/10/18 07:09:24;;;;;;;21.98;14.73;;;;;;;7.59;73.06;99436.75;4972707;28;20107;-73
2023/10/18 07:11:57;;;;;;;20.67;14.68;;;;;;;7.63;73.02;99440.91;4972651;28;20069;-72
2023/10/18 07:14:24;;;;;;;21.67;14.98;;;;;;;7.68;72.80;99438.09;4972901;28;20050;-75
2023/10/18 07:17:04;;;;;;;22.15;15.13;;;;;;;7.73;73.31;99443.09;4972446;28;20047;-74
2023/10/18 07:19:43;;;;;;;20.20;14.52;;;;;;;7.76;73.21;99441.16;4972777;28;20163;-74
2023/10/18 07:22:17;;;;;;;23.48;14.48;;;;;;;7.80;73.32;99434.84;4972417;28;20047;-72
2023/10/18 07:24:54;;;;;;;24.80;15.35;;;;;;;7.85;72.74;99436.38;4977418;28;20046;-72
2023/10/18 07:27:23;;;;;;;25.92;15.50;;;;;;;7.90;73.07;99435.25;4972454;28;20109;-74
2023/10/18 07:29:50;;;;;;;23.13;15.68;;;;;;;7.95;72.82;99433.22;4973733;28;20050;-72
2023/10/18 07:32:28;;;;;;;20.10;15.32;;;;;;;8.00;72.92;99426.91;4972356;28;20108;-73
2023/10/18 07:34:59;;;;;;;20.42;13.90;;;;;;;8.04;72.78;99423.19;4988960;28;20050;-73
2023/10/18 07:37:31;;;;;;;22.17;14.20;;;;;;;8.07;72.94;99428.25;4991253;28;20046;-73
2023/10/18 07:39:59;;;;;;;24.67;14.90;;;;;;;8.12;72.98;99425.41;4991435;28;20133;-73
2023/10/18 07:42:26;;;;;;;22.20;14.65;;;;;;;8.18;73.12;99425.94;4991763;28;20054;-74
2023/10/18 07:44:55;;;;;;;19.88;13.93;;;;;;;8.23;72.98;99411.72;4977121;28;20097;-73
2023/10/18 07:47:25;;;;;;;20.70;13.77;;;;;;;8.26;72.72;99408.97;4971970;28;20150;-73
2023/10/18 07:49:55;;;;;;;20.15;13.35;;;;;;;8.31;72.80;99407.78;4972056;28;20133;-73
2023/10/18 07:52:24;;;;;;;21.17;14.02;;;;;;;8.36;72.94;99397.03;4971989;28;20050;-74
2023/10/18 07:54:51;;;;;;;21.48;13.85;;;;;;;8.41;72.81;99397.63;4983016;28;20050;-73
2023/10/18 07:57:29;;;;;;;19.95;13.88;;;;;;;8.46;72.98;99397.41;4991209;28;20086;-73
2023/10/18 08:00:21;;;;;;;17.67;13.25;;;;;;;8.52;72.89;99396.22;4989937;28;20082;-74
2023/10/18 08:02:43;;;;;;;17.33;12.43;;;;;;;8.57;72.55;99388.97;4991330;28;20062;-73
2023/10/18 08:05:10;;;;;;;21.63;14.30;;;;;;;8.63;72.71;99395.66;4978583;28;20571;-73
2023/10/18 08:07:37;;;;;;;18.92;13.10;;;;;;;8.66;72.82;99385.84;4971903;28;20129;-73
2023/10/18 08:10:08;;;;;;;18.95;13.00;;;;;;;8.71;72.64;99377.72;4972061;28;20057;-75
2023/10/18 08:12:35;;;;;;;16.77;12.98;;;;;;;8.77;72.86;99377.38;4970756;28;20086;-74
2023/10/18 08:15:13;;;;;;;22.30;12.85;;;;;;;8.81;72.79;99376.28;4978660;28;20483;-72
2023/10/18 08:17:43;;;;;;;19.38;13.38;;;;;;;8.88;72.66;99376.78;4991352;28;20054;-76
2023/10/18 08:26:03;;;;;;;19.85;12.57;;;;;;;9.06;72.51;99367.00;4979883;28;20415;-76
2023/10/18 08:28:40;;;;;;;17.90;12.15;;;;;;;9.09;71.23;99368.63;4971555;28;20051;-76
2023/10/18 08:31:38;;;;;;;17.48;12.38;;;;;;;9.15;71.08;99367.44;4971735;28;20058;-75
2023/10/18 08:34:15;;;;;;;18.50;11.80;;;;;;;9.24;72.09;99361.63;4973218;28;20093;-75
2023/10/18 08:36:45;;;;;;;17.15;12.70;;;;;;;9.30;72.03;99357.81;4989477;28;20778;-77
2023/10/18 08:39:13;;;;;;;17.50;12.10;;;;;;;9.36;72.16;99357.44;4992289;28;20058;-76
2023/10/18 08:41:55;;;;;;;19.10;11.90;;;;;;;9.39;70.38;99357.28;4976586;28;20059;-75
2023/10/18 08:44:24;;;;;;;15.95;11.43;;;;;;;9.48;72.19;99354.09;4974822;28;20133;-76
2023/10/18 08:46:52;;;;;;;17.85;12.35;;;;;;;9.55;71.78;99348.47;4988539;28;20081;-75
2023/10/18 08:49:24;;;;;;;16.08;11.15;;;;;;;9.59;71.60;99350.84;4982492;28;20400;-75
2023/10/18 08:52:06;;;;;;;16.63;11.75;;;;;;;9.64;71.67;99347.91;4975062;28;20050;-75
2023/10/18 08:54:33;;;;;;;17.95;11.68;;;;;;;9.72;71.92;99344.84;4974393;28;20058;-76
2023/10/18 08:57:06;;;;;;;15.35;10.88;;;;;;;9.78;71.81;99340.06;4975259;28;20051;-75
2023/10/18 08:59:50;;;;;;;16.38;11.48;;;;;;;9.86;71.76;99334.34;4975319;28;20051;-75
2023/10/18 09:02:19;;;;;;;16.75;11.40;;;;;;;9.94;71.23;99339.13;4975167;28;20150;-75
2023/10/18 09:04:46;;;;;;;16.90;11.73;;;;;;;10.00;71.24;99327.38;4975119;28;20439;-75
2023/10/18 09:07:22;;;;;;;17.10;12.27;;;;;;;10.04;70.18;99342.03;4973457;28;20102;-77
2023/10/18 09:09:58;;;;;;;14.05;10.35;;;;;;;10.11;70.79;99330.22;4975220;28;20097;-75
2023/10/18 09:13:08;;;;;;;15.05;11.00;;;;;;;10.19;70.64;99326.22;4975061;28;20061;-76
2023/10/18 09:15:48;;;;;;;14.82;10.63;;;;;;;10.25;71.02;99333.75;4974785;28;20047;-75
2023/10/18 09:18:26;;;;;;;20.13;11.20;;;;;;;10.32;70.98;99328.97;4974851;28;20573;-75
2023/10/18 09:20:56;;;;;;;15.93;11.07;;;;;;;10.36;70.90;99319.94;4974774;28;20153;-76
2023/10/18 09:23:29;;;;;;;16.45;11.48;;;;;;;10.41;70.94;99331.84;4974778;28;20470;-75
2023/10/18 09:26:18;;;;;;;17.75;11.57;;;;;;;10.48;70.74;99320.97;4974723;28;20051;-75
2023/10/18 09:28:46;;;;;;;16.33;10.93;;;;;;;10.54;70.67;99320.56;4974588;28;20054;-76
2023/10/18 09:31:19;;;;;;;16.17;10.80;;;;;;;10.58;69.64;99322.06;4974642;28;20047;-76
2023/10/18 09:33:49;;;;;;;14.90;10.80;;;;;;;10.66;70.52;99317.13;4974689;28;20155;-75
2023/10/18 09:36:23;;;;;;;12.73;9.80;;;;;;;10.71;70.53;99311.59;4974569;28;20082;-75
2023/10/18 09:38:52;;;;;;;13.10;9.80;;;;;;;10.77;70.17;99303.28;4974598;28;20050;-76
2023/10/18 09:41:21;;;;;;;13.50;9.60;;;;;;;10.84;70.19;99295.00;4974538;28;20121;-77
2023/10/18 09:43:48;;;;;;;18.48;10.45;;;;;;;10.90;70.06;99299.84;4974333;28;20071;-76
2023/10/18 09:46:16;;;;;;;13.48;10.50;;;;;;;10.95;69.88;99300.38;4973164;28;20043;-75
2023/10/18 09:48:45;;;;;;;13.40;10.20;;;;;;;11.00;69.69;99287.78;4974363;28;20051;-75
2023/10/18 09:51:20;;;;;;;14.77;10.73;;;;;;;11.05;68.53;99288.31;4974197;28;20491;-75
2023/10/18 09:53:49;;;;;;;13.90;10.52;;;;;;;11.13;69.58;99279.03;4973239;28;20061;-78
2023/10/18 09:56:24;;;;;;;14.60;10.13;;;;;;;11.18;68.23;99279.59;4974100;28;20061;-77
2023/10/18 09:59:04;;;;;;;14.85;10.05;;;;;;;11.25;69.77;99278.22;4974007;28;20495;-75
2023/10/18 10:04:13;;;;;;;13.20;9.63;;;;;;;11.40;68.40;99268.41;4974142;28;20055;-77
2023/10/18 10:06:46;;;;;;;16.80;10.02;;;;;;;11.51;69.67;99262.41;4972939;28;20138;-76
2023/10/18 10:09:14;;;;;;;15.80;10.77;;;;;;;11.58;69.07;99261.03;4972463;28;20054;-77
2023/10/18 10:14:17;;;;;;;20.40;11.20;;;;;;;11.71;69.02;99249.66;5087929;23;20073;-81
2023/10/18 10:16:57;;;;;;;14.57;10.15;;;;;;;11.78;68.26;99253.53;4993396;28;20137;-81
2023/10/18 10:19:29;;;;;;;14.73;10.73;;;;;;;11.85;67.62;99249.50;4993411;28;20050;-81
2023/10/18 10:22:05;;;;;;;13.20;9.80;;;;;;;11.94;68.17;99242.75;4992014;28;20046;-81
2023/10/18 10:24:42;;;;;;;13.30;9.85;;;;;;;11.99;66.46;99238.00;4992156;28;20169;-81
2023/10/18 10:27:27;;;;;;;12.60;9.60;;;;;;;12.08;68.70;99238.31;4993137;28;20125;-82
2023/10/18 10:32:52;;;;;;;13.77;9.98;;;;;;;12.24;69.10;99238.91;4993288;28;20068;-81
2023/10/18 10:35:27;;;;;;;12.23;9.50;;;;;;;12.33;69.23;99232.09;4993116;28;20049;-81
2023/10/18 10:38:18;;;;;;;11.40;9.35;;;;;;;12.45;68.80;99225.06;4991716;28;20086;-81
2023/10/18 10:40:48;;;;;;;13.35;9.50;;;;;;;12.58;67.24;99224.16;4992937;28;20058;-81
2023/10/18 10:43:19;;;;;;;11.77;9.77;;;;;;;12.70;68.09;99222.41;4992700;28;20134;-81
2023/10/18 10:48:16;;;;;;;11.00;8.88;;;;;;;12.89;66.67;99201.59;4992672;28;20458;-81
2023/10/18 10:50:50;;;;;;;13.45;8.57;;;;;;;13.00;67.84;99206.06;4992717;28;20069;-81
2023/10/18 10:53:36;;;;;;;16.50;9.38;;;;;;;13.08;65.25;99197.53;4992567;28;20047;-81
2023/10/18 10:56:17;;;;;;;11.45;8.88;;;;;;;13.21;64.82;99194.81;4992154;28;20046;-81
2023/10/18 10:59:19;;;;;;;13.90;9.57;;;;;;;13.35;64.94;99187.59;4992453;28;20092;-81
2023/10/18 11:04:27;;;;;;;12.70;8.95;;;;;;;13.68;65.31;99170.06;4992353;28;20834;-81
2023/10/18 11:06:57;;;;;;;13.55;9.35;;;;;;;13.84;67.75;99169.69;4991309;28;20046;-81
2023/10/18 11:09:34;;;;;;;13.25;9.00;;;;;;;13.97;65.40;99174.00;4992376;28;20403;-81
2023/10/18 11:12:08;;;;;;;11.02;8.45;;;;;;;14.12;66.68;99166.59;4992189;28;20129;-81
2023/10/18 11:14:38;;;;;;;11.15;9.35;;;;;;;14.24;66.66;99154.19;4992002;28;20051;-81
2023/10/18 11:19:45;;;;;;;13.35;9.48;;;;;;;14.44;65.80;99150.72;4992309;28;20054;-82
2023/10/18 11:22:12;;;;;;;14.25;8.45;;;;;;;14.57;66.56;99154.97;4992173;28;20132;-82
2023/10/18 11:24:40;;;;;;;11.27;8.43;;;;;;;14.71;66.74;99146.75;4992146;28;20104;-81
2023/10/18 11:27:08;;;;;;;10.23;8.90;;;;;;;14.94;67.38;99135.16;4991948;28;20101;-82
2023/10/18 11:29:38;;;;;;;13.23;8.57;;;;;;;15.21;67.36;99141.72;4991920;28;20125;-82
2023/10/18 11:32:15;;;;;;;9.43;7.95;;;;;;;15.52;64.17;99122.28;4991915;28;20144;-82
2023/10/18 11:34:43;;;;;;;10.30;8.05;;;;;;;15.86;66.19;99108.69;4991932;28;20069;-82
2023/10/18 11:37:13;;;;;;;10.20;7.22;;;;;;;16.17;65.43;99105.09;4991622;28;20061;-82
2023/10/18 11:39:40;;;;;;;9.88;7.63;;;;;;;16.49;65.39;99110.09;4991753;28;20394;-82
2023/10/18 11:42:10;;;;;;;9.52;7.07;;;;;;;16.75;64.56;99106.00;4991898;28;20089;-82
2023/10/18 11:44:39;;;;;;;10.85;7.15;;;;;;;16.98;63.10;99095.88;4991793;28;20085;-82
2023/10/18 11:47:18;;;;;;;12.27;7.95;;;;;;;17.17;61.58;99094.13;4991534;28;20042;-82
2023/10/18 11:49:48;;;;;;;9.02;7.50;;;;;;;17.31;60.97;99076.84;4991670;28;20050;-81
2023/10/18 11:52:17;;;;;;;8.20;7.00;;;;;;;17.44;59.72;99076.50;4991632;28;20053;-82
2023/10/18 11:54:45;;;;;;;8.75;6.75;;;;;;;17.54;59.79;99065.81;4991593;28;20056;-82
2023/10/18 11:57:39;;;;;;;7.13;6.13;;;;;;;17.59;57.26;99055.53;4991484;28;20042;-82
2023/10/18 12:02:53;;;;;;;6.88;6.13;;;;;;;17.81;59.97;99040.97;4991713;28;20061;-82
2023/10/18 12:05:27;;;;;;;7.45;6.65;;;;;;;17.87;58.96;99033.34;4991554;28;20101;-82
2023/10/18 12:08:02;;;;;;;7.07;5.82;;;;;;;17.87;56.12;99030.69;4991548;28;20096;-82
2023/10/18 12:10:34;;;;;;;7.15;6.10;;;;;;;17.91;57.90;99021.41;4995530;28;20058;-82
2023/10/18 12:13:16;;;;;;;9.63;6.28;;;;;;;17.87;56.54;99023.50;4995573;28;20054;-81
2023/10/18 12:15:43;;;;;;;6.40;5.80;;;;;;;17.81;56.94;99019.66;4995637;28;20130;-82
2023/10/18 12:18:10;;;;;;;10.63;6.15;;;;;;;17.72;56.71;99017.91;4995370;28;20054;-82
2023/10/18 12:20:37;;;;;;;6.78;6.03;;;;;;;17.63;56.29;99008.16;4995362;28;20493;-82
2023/10/18 12:23:18;;;;;;;8.35;6.35;;;;;;;17.53;53.54;99006.41;4995221;28;20053;-81
2023/10/18 12:25:46;;;;;;;9.25;6.32;;;;;;;17.50;56.30;99008.53;4995458;28;20129;-82
2023/10/18 12:28:57;;;;;;;7.97;6.18;;;;;;;17.44;55.85;99007.31;4995241;28;20101;-81
2023/10/18 12:31:13;;;;;;;7.53;6.60;;;;;;;17.41;56.22;98999.63;4987581;28;20442;-81
2023/10/18 12:33:48;;;;;;;8.23;5.97;;;;;;;17.36;56.38;98996.59;4995391;28;20378;-82
2023/10/18 12:36:32;;;;;;;10.00;6.20;;;;;;;17.31;56.05;98995.22;4995002;28;20046;-82
2023/10/18 12:39:02;;;;;;;8.32;5.90;;;;;;;17.25;54.19;98987.84;4994977;28;20046;-81
2023/10/18 12:41:31;;;;;;;7.03;5.47;;;;;;;17.20;55.89;98979.50;4995079;28;20137;-82
2023/10/18 12:44:03;;;;;;;8.23;6.00;;;;;;;17.12;54.05;98982.06;4993629;28;20137;-81
2023/10/18 12:46:30;;;;;;;7.97;5.95;;;;;;;17.07;56.18;98969.19;4994836;28;20093;-81
2023/10/18 12:48:57;;;;;;;8.77;5.88;;;;;;;16.99;55.51;98956.63;4994828;28;20068;-81